Time;durP1;ratioP1;P1;durP2;ratioP2;P2;SDS_P1;SDS_P2;PMS_P1;PMS_P2;Temp;Humidity;BMP_temperature;BMP_pressure;BME280_temperature;BME280_humidity;BME280_pressure;Samples;Min_cycle;Max_cycle;Signal;HPM_P1;HPM_P2
2022/07/24 00:00:45;;;;;;;2.10;2.10;;;17.10;1.00;;;;;;6261042;28;20233;-53
2022/07/24 00:03:48;;;;;;;2.60;2.40;;;17.10;1.00;;;;;;6288442;28;20600;-54
2022/07/24 00:06:51;;;;;;;2.43;2.20;;;17.10;1.00;;;;;;6287523;28;20763;-53
2022/07/24 00:09:55;;;;;;;2.33;2.23;;;17.00;1.00;;;;;;6308300;28;20239;-53
2022/07/24 00:12:59;;;;;;;2.47;2.37;;;17.00;1.00;;;;;;6284436;28;20238;-53
2022/07/24 00:16:02;;;;;;;2.63;2.43;;;17.00;1.00;;;;;;6255343;28;20242;-53
2022/07/24 00:19:06;;;;;;;2.93;2.73;;;16.90;1.00;;;;;;6256522;28;20651;-54
2022/07/24 00:22:09;;;;;;;2.63;2.43;;;16.90;1.00;;;;;;6260828;28;20233;-55
2022/07/24 00:25:12;;;;;;;2.50;2.40;;;16.90;1.00;;;;;;6273884;28;20259;-55
2022/07/24 00:28:17;;;;;;;2.77;2.67;;;16.80;1.00;;;;;;6251549;28;20765;-53
2022/07/24 00:31:20;;;;;;;2.70;2.40;;;16.80;1.00;;;;;;6255672;28;20570;-53
2022/07/24 00:34:23;;;;;;;2.47;2.37;;;16.80;1.00;;;;;;6280278;28;20382;-53
2022/07/24 00:37:27;;;;;;;2.53;2.43;;;16.80;1.00;;;;;;6282837;28;20237;-53
2022/07/24 00:40:30;;;;;;;3.60;2.70;;;16.70;1.00;;;;;;6280955;28;20390;-55
2022/07/24 00:43:35;;;;;;;2.60;2.50;;;16.70;1.00;;;;;;6264034;28;20234;-55
2022/07/24 00:46:40;;;;;;;2.70;2.50;;;16.70;1.00;;;;;;6256260;28;20437;-54
2022/07/24 00:49:43;;;;;;;2.90;2.70;;;16.70;1.00;;;;;;6257432;28;20292;-54
2022/07/24 00:52:46;;;;;;;2.63;2.40;;;16.70;1.00;;;;;;6282275;28;20320;-53
2022/07/24 00:55:49;;;;;;;2.73;2.53;;;16.70;1.00;;;;;;6274477;28;20241;-53
2022/07/24 00:58:53;;;;;;;2.20;2.20;;;16.70;1.00;;;;;;6271822;28;20319;-54
2022/07/24 01:01:56;;;;;;;2.43;2.23;;;16.60;1.00;;;;;;6279564;28;20324;-54
2022/07/24 01:04:59;;;;;;;2.60;2.50;;;16.60;1.00;;;;;;6297852;28;20234;-54
2022/07/24 01:08:03;;;;;;;2.40;2.30;;;16.60;1.00;;;;;;6273734;28;20236;-54
2022/07/24 01:11:06;;;;;;;2.77;2.50;;;16.60;1.00;;;;;;6256972;28;20316;-54
2022/07/24 01:14:12;;;;;;;2.60;2.50;;;16.50;1.00;;;;;;6253836;28;20234;-53
2022/07/24 01:17:15;;;;;;;2.37;2.37;;;16.50;1.00;;;;;;6256341;28;20230;-53
2022/07/24 01:20:18;;;;;;;2.23;2.23;;;16.50;1.00;;;;;;6256935;28;20769;-54
2022/07/24 01:23:22;;;;;;;2.10;2.00;;;16.40;1.00;;;;;;6268049;28;20737;-54
2022/07/24 01:26:26;;;;;;;2.20;2.20;;;16.40;1.00;;;;;;6281478;28;20241;-54
2022/07/24 01:29:29;;;;;;;4.33;2.50;;;16.30;1.00;;;;;;6278122;28;20324;-54
2022/07/24 01:32:32;;;;;;;2.30;2.20;;;16.30;1.00;;;;;;6273769;28;20370;-53
2022/07/24 01:35:35;;;;;;;1.97;1.97;;;16.30;1.00;;;;;;6298971;28;20319;-53
2022/07/24 01:38:39;;;;;;;2.73;2.37;;;16.20;1.00;;;;;;6306145;28;20802;-54
2022/07/24 01:41:42;;;;;;;1.87;1.87;;;16.20;1.00;;;;;;6280730;28;20224;-53
2022/07/24 01:44:45;;;;;;;2.00;2.00;;;16.20;1.00;;;;;;6250733;28;20229;-53
2022/07/24 01:47:48;;;;;;;2.10;2.10;;;16.10;1.00;;;;;;6275279;28;20270;-55
2022/07/24 01:50:51;;;;;;;2.73;2.53;;;16.10;1.00;;;;;;6260432;28;20242;-55
2022/07/24 01:53:55;;;;;;;2.80;2.67;;;16.10;1.00;;;;;;6272053;28;20243;-54
2022/07/24 01:56:58;;;;;;;2.47;2.37;;;16.10;1.00;;;;;;6281299;28;20395;-54
2022/07/24 02:00:04;;;;;;;2.50;2.40;;;16.00;1.00;;;;;;6253404;28;20266;-54
2022/07/24 02:03:07;;;;;;;2.50;2.40;;;16.00;1.00;;;;;;6264957;28;20294;-53
2022/07/24 02:06:10;;;;;;;2.60;2.40;;;16.00;1.00;;;;;;6276072;28;20218;-54
2022/07/24 02:09:14;;;;;;;2.80;2.60;;;15.90;1.00;;;;;;6254825;28;20321;-54
2022/07/24 02:12:17;;;;;;;2.17;2.07;;;15.90;1.00;;;;;;6256620;28;20230;-54
2022/07/24 02:15:21;;;;;;;2.40;2.40;;;15.90;1.00;;;;;;6252979;28;20827;-54
2022/07/24 02:18:24;;;;;;;2.57;2.50;;;15.80;1.00;;;;;;6255557;28;20249;-54
2022/07/24 02:21:28;;;;;;;2.53;2.33;;;15.80;1.00;;;;;;6256279;28;20234;-53
2022/07/24 02:24:32;;;;;;;2.50;2.50;;;15.80;1.00;;;;;;6267946;28;20299;-53
2022/07/24 02:27:35;;;;;;;2.30;2.30;;;15.80;1.00;;;;;;6275790;28;20272;-53
2022/07/24 02:30:38;;;;;;;2.60;2.50;;;15.70;1.00;;;;;;6263053;28;20298;-54
2022/07/24 02:33:43;;;;;;;2.17;2.13;;;15.70;1.00;;;;;;6280571;28;20237;-54
2022/07/24 02:36:46;;;;;;;2.93;2.60;;;15.70;1.00;;;;;;6303407;28;20319;-53
2022/07/24 02:39:51;;;;;;;2.37;2.37;;;15.70;1.00;;;;;;6279412;28;20717;-54
2022/07/24 02:42:54;;;;;;;2.70;2.50;;;15.60;1.00;;;;;;6261606;28;20322;-53
2022/07/24 02:45:57;;;;;;;2.30;2.30;;;15.60;1.00;;;;;;6257550;28;20395;-54
2022/07/24 02:49:00;;;;;;;2.23;2.23;;;15.60;1.00;;;;;;6283943;28;20319;-54
2022/07/24 02:52:05;;;;;;;2.30;2.30;;;15.60;1.00;;;;;;6286962;28;20256;-54
2022/07/24 02:55:09;;;;;;;2.10;2.10;;;15.50;1.00;;;;;;6281138;28;20234;-53
2022/07/24 02:58:12;;;;;;;2.17;2.17;;;15.50;1.00;;;;;;6273728;28;20237;-54
2022/07/24 03:01:15;;;;;;;2.50;2.50;;;15.50;1.00;;;;;;6283263;28;20229;-53
2022/07/24 03:04:18;;;;;;;2.07;2.07;;;15.50;1.00;;;;;;6293915;28;20237;-54
2022/07/24 03:07:21;;;;;;;2.60;2.60;;;15.40;1.00;;;;;;6310514;28;20236;-53
2022/07/24 03:10:26;;;;;;;2.73;2.63;;;15.40;1.00;;;;;;6304961;28;20520;-53
2022/07/24 03:13:29;;;;;;;2.80;2.70;;;15.40;1.00;;;;;;6308390;28;20320;-53
2022/07/24 03:16:32;;;;;;;2.60;2.50;;;15.30;1.00;;;;;;6258259;28;21019;-54
2022/07/24 03:19:41;;;;;;;2.53;2.53;;;15.40;1.00;;;;;;6259918;28;20238;-54
2022/07/24 03:22:44;;;;;;;2.50;2.40;;;15.30;1.00;;;;;;6267352;28;20292;-55
2022/07/24 03:25:48;;;;;;;2.50;2.40;;;15.30;1.00;;;;;;6273550;28;20237;-53
2022/07/24 03:28:51;;;;;;;2.90;2.80;;;15.30;1.00;;;;;;6276822;28;20336;-53
2022/07/24 03:31:54;;;;;;;2.47;2.37;;;15.30;1.00;;;;;;6270859;28;20501;-54
2022/07/24 03:34:58;;;;;;;2.60;2.60;;;15.20;1.00;;;;;;6274377;28;20229;-54
2022/07/24 03:38:00;;;;;;;2.40;2.40;;;15.20;1.00;;;;;;6277601;28;20290;-54
2022/07/24 03:41:05;;;;;;;2.63;2.63;;;15.20;1.00;;;;;;6286332;28;20379;-53
2022/07/24 03:44:09;;;;;;;2.80;2.80;;;15.30;1.00;;;;;;6282414;28;20536;-54
2022/07/24 03:47:12;;;;;;;2.63;2.53;;;15.20;1.00;;;;;;6280023;28;20375;-53
2022/07/24 03:50:14;;;;;;;2.90;2.80;;;15.30;1.00;;;;;;6280785;28;20267;-54
2022/07/24 03:53:24;;;;;;;2.47;2.47;;;15.30;1.00;;;;;;6294347;28;20618;-53
2022/07/24 03:56:30;;;;;;;2.80;2.60;;;15.30;1.00;;;;;;6284428;28;20233;-56
2022/07/24 03:59:33;;;;;;;3.17;2.87;;;15.30;1.00;;;;;;6280763;28;20708;-54
2022/07/24 04:02:36;;;;;;;2.63;2.63;;;15.30;1.00;;;;;;6284690;28;20221;-55
2022/07/24 04:05:39;;;;;;;2.90;2.70;;;15.30;1.00;;;;;;6282011;28;20868;-54
2022/07/24 04:08:53;;;;;;;4.57;3.13;;;15.30;1.00;;;;;;6282672;28;20244;-55
2022/07/24 04:11:58;;;;;;;3.10;2.80;;;15.30;1.00;;;;;;6288855;28;20685;-55
2022/07/24 04:15:01;;;;;;;2.67;2.67;;;15.30;1.00;;;;;;6276970;28;20524;-54
2022/07/24 04:18:04;;;;;;;2.50;2.50;;;15.40;1.00;;;;;;6256152;28;20707;-53
2022/07/24 04:21:07;;;;;;;2.93;2.73;;;15.40;1.00;;;;;;6264304;28;20551;-53
2022/07/24 04:24:10;;;;;;;2.40;2.30;;;15.40;1.00;;;;;;6282667;28;20856;-54
2022/07/24 04:27:14;;;;;;;2.83;2.63;;;15.50;1.00;;;;;;6276876;28;20272;-54
2022/07/24 04:30:17;;;;;;;2.63;2.53;;;15.50;1.00;;;;;;6272721;28;20230;-53
2022/07/24 04:33:20;;;;;;;2.80;2.60;;;15.50;1.00;;;;;;6283323;28;20311;-54
2022/07/24 04:36:23;;;;;;;2.53;2.53;;;15.50;1.00;;;;;;6278129;28;20319;-53
2022/07/24 04:39:26;;;;;;;3.57;2.60;;;15.60;1.00;;;;;;6272688;28;20264;-54
2022/07/24 04:42:31;;;;;;;2.83;2.63;;;15.60;1.00;;;;;;6283168;28;20230;-53
2022/07/24 04:45:34;;;;;;;2.60;2.60;;;15.60;1.00;;;;;;6275978;28;20240;-54
2022/07/24 04:48:37;;;;;;;2.80;2.60;;;15.70;1.00;;;;;;6283813;28;20282;-54
2022/07/24 04:51:40;;;;;;;2.80;2.60;;;15.70;1.00;;;;;;6281860;28;20237;-54
2022/07/24 04:54:43;;;;;;;2.93;2.63;;;15.70;1.00;;;;;;6284764;28;20546;-53
2022/07/24 04:57:48;;;;;;;2.93;2.53;;;15.80;1.00;;;;;;6279111;28;20362;-55
2022/07/24 05:00:50;;;;;;;2.40;2.33;;;15.90;1.00;;;;;;6279173;28;20379;-58
2022/07/24 05:03:56;;;;;;;2.77;2.43;;;16.10;1.00;;;;;;6289417;28;20360;-53
2022/07/24 05:06:59;;;;;;;2.57;2.40;;;16.20;1.00;;;;;;6281403;28;20241;-54
2022/07/24 05:10:02;;;;;;;2.30;2.30;;;16.40;1.00;;;;;;6293363;28;20371;-53
2022/07/24 05:13:07;;;;;;;2.43;2.30;;;16.70;1.00;;;;;;6282687;28;20319;-55
2022/07/24 05:16:10;;;;;;;4.80;2.20;;;16.90;1.00;;;;;;6283655;28;20267;-54
2022/07/24 05:19:13;;;;;;;2.20;2.10;;;17.20;1.00;;;;;;6277315;28;20302;-53
2022/07/24 05:22:16;;;;;;;2.00;2.00;;;17.50;1.00;;;;;;6276278;28;20367;-53
2022/07/24 05:25:19;;;;;;;1.87;1.87;;;17.80;1.00;;;;;;6279190;28;20770;-54
2022/07/24 05:28:23;;;;;;;2.93;2.17;;;18.10;1.00;;;;;;6282046;28;20356;-53
2022/07/24 05:31:27;;;;;;;2.03;1.97;;;18.30;1.00;;;;;;6273439;28;20233;-56
2022/07/24 05:34:30;;;;;;;2.20;2.20;;;18.60;1.00;;;;;;6284543;28;20241;-54
2022/07/24 05:37:33;;;;;;;2.10;2.00;;;18.80;1.00;;;;;;6285004;28;20847;-53
2022/07/24 05:40:36;;;;;;;3.07;2.20;;;19.00;1.00;;;;;;6277807;28;20248;-53
2022/07/24 05:43:41;;;;;;;2.10;1.90;;;18.80;1.00;;;;;;6284151;28;20719;-54
2022/07/24 05:46:43;;;;;;;1.90;1.80;;;19.00;1.00;;;;;;6277689;28;20264;-53
2022/07/24 05:49:47;;;;;;;2.00;1.90;;;19.30;1.00;;;;;;6273323;28;20229;-53
2022/07/24 05:52:50;;;;;;;1.70;1.70;;;19.40;1.00;;;;;;6281677;28;20608;-53
2022/07/24 05:55:52;;;;;;;1.70;1.70;;;19.60;1.00;;;;;;6279457;28;20367;-54
2022/07/24 05:58:57;;;;;;;2.17;1.97;;;19.90;1.00;;;;;;6275774;28;20625;-53
2022/07/24 06:02:03;;;;;;;1.70;1.70;;;20.00;1.00;;;;;;6281172;28;20304;-55
2022/07/24 06:05:07;;;;;;;2.07;1.97;;;20.30;1.00;;;;;;6288185;28;20282;-54
2022/07/24 06:08:11;;;;;;;1.87;1.80;;;20.70;1.00;;;;;;6284423;28;20565;-54
2022/07/24 06:11:14;;;;;;;1.67;1.67;;;20.90;1.00;;;;;;6284576;28;20256;-54
2022/07/24 06:14:18;;;;;;;1.80;1.70;;;21.10;1.00;;;;;;6284223;28;20237;-54
2022/07/24 06:17:21;;;;;;;2.10;2.00;;;21.40;1.00;;;;;;6283044;28;20797;-55
2022/07/24 06:20:24;;;;;;;1.90;1.90;;;21.40;1.00;;;;;;6268425;28;20845;-53
2022/07/24 06:23:27;;;;;;;2.00;1.90;;;21.50;1.00;;;;;;6279750;28;20317;-54
2022/07/24 06:26:30;;;;;;;3.67;1.90;;;21.70;1.00;;;;;;6292703;28;20374;-53
2022/07/24 06:29:54;;;;;;;4.03;1.80;;;21.60;1.00;;;;;;6285379;28;20637;-54
2022/07/24 06:33:00;;;;;;;1.77;1.77;;;21.80;1.00;;;;;;6282056;28;20310;-53
2022/07/24 06:36:03;;;;;;;2.40;2.10;;;22.00;1.00;;;;;;6286521;28;20437;-54
2022/07/24 06:39:05;;;;;;;2.00;1.90;;;21.70;1.00;;;;;;6282648;28;20484;-53
2022/07/24 06:42:09;;;;;;;3.23;2.00;;;21.90;1.00;;;;;;6279145;28;20236;-53
2022/07/24 06:45:14;;;;;;;3.40;2.27;;;22.00;1.00;;;;;;6282318;28;20306;-53
2022/07/24 06:48:17;;;;;;;2.40;2.30;;;21.60;1.00;;;;;;6290032;28;20298;-54
2022/07/24 06:51:20;;;;;;;1.80;1.80;;;21.30;1.00;;;;;;6295710;28;20658;-54
2022/07/24 06:54:23;;;;;;;2.03;1.93;;;21.20;1.00;;;;;;6283988;28;20330;-54
2022/07/24 06:57:26;;;;;;;2.03;1.93;;;21.50;1.00;;;;;;6280726;28;20584;-54
2022/07/24 07:00:32;;;;;;;2.17;2.07;;;21.90;1.00;;;;;;6274520;28;20320;-54
2022/07/24 07:03:35;;;;;;;1.80;1.80;;;22.20;1.00;;;;;;6264971;28;20226;-53
2022/07/24 07:06:38;;;;;;;2.23;2.00;;;22.60;1.00;;;;;;6287452;28;20367;-55
2022/07/24 07:09:46;;;;;;;1.97;1.90;;;22.80;1.00;;;;;;6281783;28;20388;-53
2022/07/24 07:12:49;;;;;;;1.80;1.80;;;22.80;1.00;;;;;;6289198;28;20502;-54
2022/07/24 07:15:53;;;;;;;1.70;1.70;;;23.00;1.00;;;;;;6280735;28;20748;-54
2022/07/24 07:18:56;;;;;;;1.90;1.90;;;23.00;1.00;;;;;;6283095;28;20337;-54
2022/07/24 07:21:59;;;;;;;2.30;2.30;;;22.80;1.00;;;;;;6290164;28;20382;-54
2022/07/24 07:25:02;;;;;;;2.00;2.00;;;22.70;1.00;;;;;;6276008;28;20397;-54
2022/07/24 07:28:05;;;;;;;1.90;1.90;;;22.40;1.00;;;;;;6281794;28;20240;-52
2022/07/24 07:31:09;;;;;;;1.97;1.87;;;22.40;1.00;;;;;;6281716;28;20264;-53
2022/07/24 07:34:12;;;;;;;3.80;1.80;;;22.50;1.00;;;;;;6279953;28;20241;-53
2022/07/24 07:37:15;;;;;;;2.00;2.00;;;22.40;1.00;;;;;;6283616;28;20378;-55
2022/07/24 07:40:19;;;;;;;2.83;1.80;;;22.30;1.00;;;;;;6279282;28;20305;-54
2022/07/24 07:43:22;;;;;;;1.80;1.80;;;22.20;1.00;;;;;;6282133;28;20324;-54
2022/07/24 07:46:26;;;;;;;1.60;1.50;;;22.00;1.00;;;;;;6284301;28;20247;-55
2022/07/24 07:49:29;;;;;;;3.30;1.90;;;22.10;1.00;;;;;;6286281;28;20522;-53
2022/07/24 07:52:32;;;;;;;1.60;1.60;;;22.00;1.00;;;;;;6283745;28;20519;-55
2022/07/24 07:55:36;;;;;;;1.80;1.80;;;22.00;1.00;;;;;;6279320;28;20233;-54
2022/07/24 07:58:39;;;;;;;2.23;2.03;;;21.70;1.00;;;;;;6282548;28;20221;-54
2022/07/24 08:01:43;;;;;;;2.00;1.90;;;21.60;1.00;;;;;;6278358;28;20237;-53
2022/07/24 08:04:46;;;;;;;1.83;1.83;;;21.30;1.00;;;;;;6283625;28;20658;-53
2022/07/24 08:07:49;;;;;;;1.80;1.80;;;21.20;1.00;;;;;;6284332;28;20233;-53
2022/07/24 08:10:53;;;;;;;2.03;1.97;;;21.10;1.00;;;;;;6284900;28;20327;-54
2022/07/24 08:13:56;;;;;;;1.97;1.83;;;21.00;1.00;;;;;;6282360;28;20236;-53
2022/07/24 08:17:00;;;;;;;1.67;1.63;;;21.10;1.00;;;;;;6280734;28;20243;-55
2022/07/24 08:20:04;;;;;;;1.43;1.43;;;21.30;1.00;;;;;;6286497;28;20238;-55
2022/07/24 08:23:07;;;;;;;1.50;1.50;;;21.20;1.00;;;;;;6285880;28;20274;-53
2022/07/24 08:26:11;;;;;;;1.87;1.87;;;21.10;1.00;;;;;;6275933;28;20376;-54
2022/07/24 08:29:14;;;;;;;1.73;1.60;;;21.10;1.00;;;;;;6282610;28;20251;-54
2022/07/24 08:32:18;;;;;;;1.80;1.70;;;21.20;1.00;;;;;;6282637;28;20998;-52
2022/07/24 08:35:23;;;;;;;2.20;1.83;;;21.30;1.00;;;;;;6277092;28;20765;-53
2022/07/24 08:38:34;;;;;;;2.37;1.60;;;21.30;1.00;;;;;;6288108;28;20244;-53
2022/07/24 08:41:37;;;;;;;1.80;1.80;;;21.40;1.00;;;;;;6281614;28;20440;-54
2022/07/24 08:44:40;;;;;;;1.80;1.70;;;21.40;1.00;;;;;;6268467;28;20229;-54
2022/07/24 08:47:45;;;;;;;1.97;1.87;;;21.70;1.00;;;;;;6278528;28;20283;-55
2022/07/24 08:50:50;;;;;;;1.77;1.70;;;21.80;1.00;;;;;;6282272;28;20233;-53
2022/07/24 08:53:53;;;;;;;2.20;2.10;;;22.00;1.00;;;;;;6281372;28;20347;-53
2022/07/24 08:56:56;;;;;;;2.53;2.00;;;21.80;1.00;;;;;;6281930;28;20279;-54
2022/07/24 09:00:00;;;;;;;4.43;1.80;;;21.70;1.00;;;;;;6278664;28;20321;-55
2022/07/24 09:03:05;;;;;;;1.70;1.60;;;22.00;1.00;;;;;;6280856;28;20539;-53
2022/07/24 09:06:10;;;;;;;1.43;1.43;;;22.10;1.00;;;;;;6284404;28;20581;-55
2022/07/24 09:09:12;;;;;;;1.50;1.50;;;22.00;1.00;;;;;;6279658;28;20654;-54
2022/07/24 09:12:21;;;;;;;1.70;1.70;;;22.20;1.00;;;;;;6278605;28;20263;-55
2022/07/24 09:15:26;;;;;;;1.70;1.70;;;22.30;1.00;;;;;;6276997;28;20394;-54
2022/07/24 09:18:32;;;;;;;1.90;1.80;;;22.50;1.00;;;;;;6285975;28;20596;-55
2022/07/24 09:21:37;;;;;;;1.80;1.70;;;22.90;1.00;;;;;;6281332;28;20484;-53
2022/07/24 09:24:40;;;;;;;1.73;1.70;;;22.90;1.00;;;;;;6282899;28;20322;-53
2022/07/24 09:27:48;;;;;;;2.03;1.97;;;22.90;1.00;;;;;;6282600;28;20251;-53
2022/07/24 09:30:51;;;;;;;1.90;1.80;;;22.80;1.00;;;;;;6271958;28;20738;-53
2022/07/24 09:34:02;;;;;;;1.90;1.90;;;23.00;1.00;;;;;;6276528;28;20242;-53
2022/07/24 09:37:07;;;;;;;2.10;2.10;;;23.20;1.00;;;;;;6279961;28;20371;-52
2022/07/24 09:40:12;;;;;;;2.00;2.00;;;23.20;1.00;;;;;;6278661;28;20256;-53
2022/07/24 09:43:21;;;;;;;1.80;1.80;;;23.30;1.00;;;;;;6285874;28;20252;-53
2022/07/24 09:46:26;;;;;;;1.97;1.97;;;23.50;1.00;;;;;;6283202;28;20316;-53
2022/07/24 09:49:31;;;;;;;2.03;1.93;;;23.50;1.00;;;;;;6290325;28;20660;-53
2022/07/24 09:52:35;;;;;;;2.10;2.10;;;23.40;1.00;;;;;;6289945;28;20372;-52
2022/07/24 09:55:39;;;;;;;2.17;2.07;;;23.30;1.00;;;;;;6288411;28;20674;-53
2022/07/24 09:58:51;;;;;;;1.70;1.70;;;23.30;1.00;;;;;;6289649;28;20618;-53
2022/07/24 10:01:55;;;;;;;1.50;1.50;;;23.50;1.00;;;;;;6287686;28;20530;-52
2022/07/24 10:05:01;;;;;;;1.80;1.80;;;23.60;1.00;;;;;;6295760;28;20320;-53
2022/07/24 10:08:06;;;;;;;1.70;1.70;;;23.70;1.00;;;;;;6290399;28;20283;-53
2022/07/24 10:11:10;;;;;;;3.43;2.10;;;23.90;1.00;;;;;;6288562;28;20258;-53
2022/07/24 10:14:14;;;;;;;2.10;2.10;;;24.00;1.00;;;;;;6281540;28;20302;-53
2022/07/24 10:17:17;;;;;;;1.87;1.87;;;24.10;1.00;;;;;;6288232;28;20378;-53
2022/07/24 10:20:39;;;;;;;2.30;2.20;;;24.30;1.00;;;;;;6301164;28;20348;-56
2022/07/24 10:24:11;;;;;;;2.00;2.00;;;24.40;1.00;;;;;;6285689;28;20229;-54
2022/07/24 10:27:25;;;;;;;1.97;1.97;;;24.50;1.00;;;;;;6287471;28;20221;-55
2022/07/24 10:30:28;;;;;;;2.53;1.90;;;24.70;1.00;;;;;;6282120;28;20244;-58
2022/07/24 10:33:32;;;;;;;2.83;2.67;;;24.70;1.00;;;;;;6289271;28;20258;-55
2022/07/24 10:36:42;;;;;;;1.90;1.80;;;24.70;1.00;;;;;;6290893;28;20295;-57
2022/07/24 10:40:03;;;;;;;2.80;2.70;;;24.80;1.00;;;;;;6287226;28;20947;-53
2022/07/24 10:43:10;;;;;;;2.60;2.50;;;24.80;1.00;;;;;;6286511;28;20324;-54
2022/07/24 10:46:14;;;;;;;2.53;2.33;;;24.90;1.00;;;;;;6294135;28;20226;-53
2022/07/24 10:49:34;;;;;;;2.37;2.37;;;24.90;1.00;;;;;;6285204;28;20521;-55
2022/07/24 10:52:40;;;;;;;2.87;2.77;;;25.00;1.00;;;;;;6280654;28;20841;-53
2022/07/24 10:55:43;;;;;;;2.50;2.30;;;25.10;1.00;;;;;;6293400;28;20234;-53
2022/07/24 10:58:56;;;;;;;2.73;2.63;;;25.10;1.00;;;;;;6276055;28;20329;-53
2022/07/24 11:02:29;;;;;;;2.27;2.27;;;25.20;1.00;;;;;;6285284;28;20285;-54
2022/07/24 11:05:35;;;;;;;2.57;2.47;;;25.40;1.00;;;;;;6289587;28;20229;-54
2022/07/24 11:08:40;;;;;;;3.10;2.80;;;25.60;1.00;;;;;;6285308;28;20268;-54
2022/07/24 11:12:06;;;;;;;2.70;2.60;;;25.60;1.00;;;;;;6287874;28;20352;-55
2022/07/24 11:18:34;;;;;;;2.10;2.10;;;25.60;1.00;;;;;;6283071;28;20328;-53
2022/07/24 11:21:47;;;;;;;2.63;2.53;;;25.60;1.00;;;;;;6288593;28;20233;-53
2022/07/24 11:25:11;;;;;;;3.00;2.90;;;25.90;1.00;;;;;;6281618;28;20320;-54
2022/07/24 11:28:14;;;;;;;2.63;2.53;;;25.80;1.00;;;;;;6291782;28;20937;-53
2022/07/24 11:31:18;;;;;;;2.63;2.53;;;25.80;1.00;;;;;;6286167;28;20285;-53
2022/07/24 11:34:22;;;;;;;2.40;2.40;;;25.90;1.00;;;;;;6281818;28;20316;-53
2022/07/24 11:37:30;;;;;;;2.97;2.87;;;25.70;1.00;;;;;;6284549;28;20290;-54
2022/07/24 11:40:39;;;;;;;3.83;2.60;;;25.80;1.00;;;;;;6287873;28;20854;-53
2022/07/24 11:43:51;;;;;;;2.40;2.30;;;25.80;1.00;;;;;;6280074;28;20232;-56
2022/07/24 11:46:54;;;;;;;2.10;2.10;;;25.90;1.00;;;;;;6277845;28;20328;-54
2022/07/24 11:50:00;;;;;;;2.57;2.50;;;26.10;1.00;;;;;;6290161;28;20265;-53
2022/07/24 11:53:07;;;;;;;2.73;2.63;;;26.30;1.00;;;;;;6285177;28;20614;-53
2022/07/24 11:56:11;;;;;;;2.50;2.40;;;26.40;1.00;;;;;;6285183;28;20610;-53
2022/07/24 11:59:25;;;;;;;2.77;2.57;;;26.20;1.00;;;;;;6274185;28;20371;-53
2022/07/24 12:02:28;;;;;;;2.40;2.20;;;26.10;1.00;;;;;;6282679;28;20329;-52
2022/07/24 12:05:34;;;;;;;2.37;2.37;;;26.20;1.00;;;;;;6287912;28;20374;-54
2022/07/24 12:08:37;;;;;;;3.17;2.67;;;26.20;1.00;;;;;;6281940;28;20244;-52
2022/07/24 12:11:41;;;;;;;2.60;2.50;;;26.30;1.00;;;;;;6283192;28;20316;-54
2022/07/24 12:14:44;;;;;;;2.10;2.10;;;26.30;1.00;;;;;;6278094;28;20312;-52
2022/07/24 12:18:01;;;;;;;2.33;2.27;;;26.30;1.00;;;;;;6286889;28;20468;-53
2022/07/24 12:21:05;;;;;;;3.17;2.47;;;26.40;1.00;;;;;;6280775;28;20709;-52
2022/07/24 12:24:08;;;;;;;2.60;2.60;;;26.20;1.00;;;;;;6279777;28;20237;-54
2022/07/24 12:27:13;;;;;;;2.20;2.20;;;26.30;1.00;;;;;;6287802;28;20256;-53
2022/07/24 12:30:26;;;;;;;2.70;2.47;;;26.40;1.00;;;;;;6285810;28;20881;-52
2022/07/24 12:33:33;;;;;;;2.60;2.50;;;26.50;1.00;;;;;;6278322;28;20370;-53
2022/07/24 12:36:36;;;;;;;2.60;2.50;;;26.60;1.00;;;;;;6279970;28;20333;-53
2022/07/24 12:39:46;;;;;;;2.70;2.70;;;26.80;1.00;;;;;;6276873;28;20326;-53
2022/07/24 12:42:57;;;;;;;2.43;2.40;;;26.80;1.00;;;;;;6280090;28;20371;-54
2022/07/24 12:46:08;;;;;;;2.23;2.13;;;27.00;1.00;;;;;;6282437;28;20263;-53
2022/07/24 12:49:12;;;;;;;2.43;2.33;;;26.80;1.00;;;;;;6285462;28;20241;-53
2022/07/24 12:52:23;;;;;;;3.00;2.20;;;26.90;1.00;;;;;;6271264;28;20420;-56
2022/07/24 12:55:27;;;;;;;2.23;2.23;;;26.90;1.00;;;;;;6280532;28;20330;-54
2022/07/24 12:58:47;;;;;;;2.00;1.90;;;27.00;1.00;;;;;;6275443;28;20316;-53
2022/07/24 13:01:52;;;;;;;2.37;2.27;;;27.10;1.00;;;;;;6251693;28;20221;-53
2022/07/24 13:04:57;;;;;;;2.50;2.40;;;27.10;1.00;;;;;;6287485;28;20232;-54
2022/07/24 13:08:00;;;;;;;2.60;2.60;;;27.10;1.00;;;;;;6280957;28;20775;-53
2022/07/24 13:11:03;;;;;;;2.00;1.90;;;27.20;1.00;;;;;;6278607;28;20316;-54
2022/07/24 13:14:09;;;;;;;2.40;2.30;;;27.20;1.00;;;;;;6288961;28;20237;-53
2022/07/24 13:17:14;;;;;;;2.40;2.30;;;27.30;1.00;;;;;;6283834;28;20746;-54
2022/07/24 13:20:18;;;;;;;2.40;2.30;;;27.40;1.00;;;;;;6280629;28;20383;-52
2022/07/24 13:23:20;;;;;;;2.30;2.30;;;27.50;1.00;;;;;;6282300;28;20237;-54
2022/07/24 13:26:24;;;;;;;2.73;2.53;;;27.60;1.00;;;;;;6279367;28;20372;-53
2022/07/24 13:29:29;;;;;;;2.37;2.37;;;27.70;1.00;;;;;;6277731;28;20294;-55
2022/07/24 13:32:32;;;;;;;3.70;2.63;;;27.80;1.00;;;;;;6289032;28;20300;-55
2022/07/24 13:35:36;;;;;;;2.20;2.20;;;27.90;1.00;;;;;;6284223;28;20726;-54
2022/07/24 13:38:39;;;;;;;2.13;2.13;;;27.70;1.00;;;;;;6282713;28;20559;-53
2022/07/24 13:41:42;;;;;;;2.20;2.10;;;27.60;1.00;;;;;;6281855;28;20270;-53
2022/07/24 13:44:47;;;;;;;2.07;2.03;;;27.60;1.00;;;;;;6280593;28;20612;-54
2022/07/24 13:47:50;;;;;;;2.20;2.10;;;27.70;1.00;;;;;;6271085;28;20408;-53
2022/07/24 13:50:53;;;;;;;2.00;2.00;;;27.80;1.00;;;;;;6280906;28;20575;-54
2022/07/24 13:53:56;;;;;;;2.20;2.20;;;27.80;1.00;;;;;;6281156;28;20463;-53
2022/07/24 13:57:01;;;;;;;2.00;2.00;;;27.90;1.00;;;;;;6278310;28;20488;-53
2022/07/24 14:00:07;;;;;;;2.10;2.10;;;28.00;1.00;;;;;;6280919;28;20225;-53
2022/07/24 14:03:10;;;;;;;2.60;2.43;;;28.00;1.00;;;;;;6281084;28;20346;-54
2022/07/24 14:06:34;;;;;;;1.97;1.97;;;28.10;1.00;;;;;;6271090;28;20241;-54
2022/07/24 14:09:37;;;;;;;2.10;1.90;;;28.20;1.00;;;;;;6279287;28;20336;-54
2022/07/24 14:12:40;;;;;;;2.43;2.30;;;28.40;1.00;;;;;;6271020;28;20320;-54
2022/07/24 14:15:44;;;;;;;1.63;1.63;;;28.50;1.00;;;;;;6264363;28;20226;-54
2022/07/24 14:18:48;;;;;;;2.00;2.00;;;28.40;1.00;;;;;;6271406;28;20240;-53
2022/07/24 14:21:51;;;;;;;2.13;2.13;;;28.50;1.00;;;;;;6277066;28;20379;-53
2022/07/24 14:24:54;;;;;;;2.07;2.07;;;28.40;1.00;;;;;;6272102;28;20714;-53
2022/07/24 14:27:57;;;;;;;6.07;2.43;;;28.50;1.00;;;;;;6281229;28;20675;-52
2022/07/24 14:31:02;;;;;;;1.90;1.90;;;28.40;1.00;;;;;;6280239;28;20371;-52
2022/07/24 14:34:05;;;;;;;2.10;2.10;;;28.60;1.00;;;;;;6286819;28;20291;-53
2022/07/24 14:37:09;;;;;;;2.20;2.20;;;28.40;1.00;;;;;;6282467;28;20256;-52
2022/07/24 14:40:20;;;;;;;2.00;1.90;;;28.40;1.00;;;;;;6286401;28;20291;-52
2022/07/24 14:43:23;;;;;;;2.03;2.03;;;28.40;1.00;;;;;;6292985;28;20732;-54
2022/07/24 14:46:27;;;;;;;2.00;1.90;;;28.50;1.00;;;;;;6283312;28;20344;-53
2022/07/24 14:49:30;;;;;;;1.80;1.80;;;28.60;1.00;;;;;;6293560;28;20240;-54
2022/07/24 14:52:33;;;;;;;1.80;1.80;;;28.50;1.00;;;;;;6285577;28;20518;-53
2022/07/24 14:55:37;;;;;;;2.37;2.27;;;28.50;1.00;;;;;;6295404;28;20245;-54
2022/07/24 14:58:40;;;;;;;2.40;2.20;;;28.50;1.00;;;;;;6283762;28;20843;-53
2022/07/24 15:01:44;;;;;;;2.07;2.07;;;28.50;1.00;;;;;;6285104;28;20236;-53
2022/07/24 15:04:47;;;;;;;2.40;2.30;;;28.50;1.00;;;;;;6282605;28;20253;-52
2022/07/24 15:07:50;;;;;;;1.70;1.70;;;28.50;1.00;;;;;;6254851;28;20232;-53
2022/07/24 15:10:53;;;;;;;2.17;2.17;;;28.40;1.00;;;;;;6287515;28;20241;-52
2022/07/24 15:13:56;;;;;;;2.20;2.20;;;28.50;1.00;;;;;;6284770;28;21117;-53
2022/07/24 15:17:01;;;;;;;2.30;2.30;;;28.40;1.00;;;;;;6291772;28;20477;-53
2022/07/24 15:20:05;;;;;;;2.20;2.10;;;28.40;1.00;;;;;;6287264;28;20265;-52
2022/07/24 15:23:08;;;;;;;2.97;2.10;;;28.40;1.00;;;;;;6283607;28;20237;-53
2022/07/24 15:26:11;;;;;;;1.90;1.90;;;28.80;1.00;;;;;;6284191;28;20248;-53
2022/07/24 15:29:14;;;;;;;2.73;2.63;;;29.00;1.00;;;;;;6278152;28;20314;-53
2022/07/24 15:32:20;;;;;;;1.80;1.80;;;29.10;1.00;;;;;;6284712;28;20240;-57
2022/07/24 15:35:25;;;;;;;2.27;2.10;;;29.10;1.00;;;;;;6278927;28;20233;-53
2022/07/24 15:38:28;;;;;;;2.27;2.17;;;29.00;1.00;;;;;;6281869;28;20777;-52
2022/07/24 15:41:31;;;;;;;2.07;2.07;;;29.10;1.00;;;;;;6289550;28;20327;-53
2022/07/24 15:44:35;;;;;;;2.17;2.17;;;29.10;1.00;;;;;;6271104;28;20798;-53
2022/07/24 15:47:40;;;;;;;2.08;2.08;;;29.10;1.00;;;;;;6275364;28;20318;-53
2022/07/24 15:50:43;;;;;;;2.37;2.27;;;29.00;1.00;;;;;;6290569;28;20347;-54
2022/07/24 15:53:45;;;;;;;2.17;2.10;;;29.00;1.00;;;;;;6281794;28;20317;-52
2022/07/24 15:56:49;;;;;;;2.10;2.10;;;29.00;1.00;;;;;;6286431;28;20408;-53
2022/07/24 15:59:53;;;;;;;1.97;1.97;;;29.10;1.00;;;;;;6284243;28;20241;-53
2022/07/24 16:02:57;;;;;;;2.20;2.17;;;29.00;1.00;;;;;;6280822;28;20225;-53
2022/07/24 16:06:00;;;;;;;2.30;2.30;;;28.90;1.00;;;;;;6284972;28;20311;-53
2022/07/24 16:09:05;;;;;;;2.37;2.37;;;28.90;1.00;;;;;;6279632;28;20310;-53
2022/07/24 16:12:08;;;;;;;1.73;1.73;;;28.90;1.00;;;;;;6288114;28;20880;-53
2022/07/24 16:15:15;;;;;;;1.85;1.85;;;28.90;1.00;;;;;;6274761;28;20741;-52
2022/07/24 16:18:21;;;;;;;3.17;2.70;;;29.10;1.00;;;;;;6284320;28;20260;-53